sensor_id;sensor_type;location;lat;lon;timestamp;P1;durP1;ratioP1;P2;durP2;ratioP2
4244;SDS011;2136;48.502;9.194;2023-08-17T00:01:07;7.77;;;5.27;;
4244;SDS011;2136;48.502;9.194;2023-08-17T00:03:34;4.63;;;4.00;;
4244;SDS011;2136;48.502;9.194;2023-08-17T00:06:01;6.43;;;4.03;;
4244;SDS011;2136;48.502;9.194;2023-08-17T00:08:28;9.00;;;5.60;;
4244;SDS011;2136;48.502;9.194;2023-08-17T00:10:55;5.97;;;5.37;;
4244;SDS011;2136;48.502;9.194;2023-08-17T00:13:21;7.23;;;5.30;;
4244;SDS011;2136;48.502;9.194;2023-08-17T00:15:48;4.80;;;4.30;;
4244;SDS011;2136;48.502;9.194;2023-08-17T00:18:16;4.93;;;4.53;;
4244;SDS011;2136;48.502;9.194;2023-08-17T00:20:43;7.73;;;5.30;;
4244;SDS011;2136;48.502;9.194;2023-08-17T00:23:10;5.80;;;5.20;;
4244;SDS011;2136;48.502;9.194;2023-08-17T00:25:37;5.70;;;4.93;;
4244;SDS011;2136;48.502;9.194;2023-08-17T00:28:04;5.37;;;4.97;;
4244;SDS011;2136;48.502;9.194;2023-08-17T00:30:31;6.73;;;5.00;;
4244;SDS011;2136;48.502;9.194;2023-08-17T00:33:01;9.00;;;4.90;;
4244;SDS011;2136;48.502;9.194;2023-08-17T00:35:29;6.77;;;4.50;;
4244;SDS011;2136;48.502;9.194;2023-08-17T00:37:56;6.83;;;4.77;;
4244;SDS011;2136;48.502;9.194;2023-08-17T00:40:23;6.40;;;4.50;;
4244;SDS011;2136;48.502;9.194;2023-08-17T00:42:50;7.90;;;5.43;;
4244;SDS011;2136;48.502;9.194;2023-08-17T00:45:17;8.03;;;5.80;;
4244;SDS011;2136;48.502;9.194;2023-08-17T00:47:44;8.67;;;5.40;;
4244;SDS011;2136;48.502;9.194;2023-08-17T00:50:11;5.40;;;4.90;;
4244;SDS011;2136;48.502;9.194;2023-08-17T00:52:41;5.73;;;5.10;;
4244;SDS011;2136;48.502;9.194;2023-08-17T00:55:08;5.07;;;4.73;;
4244;SDS011;2136;48.502;9.194;2023-08-17T00:57:37;5.30;;;4.20;;
4244;SDS011;2136;48.502;9.194;2023-08-17T01:00:06;5.40;;;5.00;;
4244;SDS011;2136;48.502;9.194;2023-08-17T01:02:34;6.73;;;5.20;;
4244;SDS011;2136;48.502;9.194;2023-08-17T01:05:01;5.50;;;5.00;;
4244;SDS011;2136;48.502;9.194;2023-08-17T01:07:31;5.90;;;5.27;;
4244;SDS011;2136;48.502;9.194;2023-08-17T01:09:59;6.17;;;5.57;;
4244;SDS011;2136;48.502;9.194;2023-08-17T01:12:28;8.43;;;5.40;;
4244;SDS011;2136;48.502;9.194;2023-08-17T01:14:59;7.63;;;5.30;;
4244;SDS011;2136;48.502;9.194;2023-08-17T01:17:31;5.00;;;4.60;;
4244;SDS011;2136;48.502;9.194;2023-08-17T01:20:03;6.07;;;5.27;;
4244;SDS011;2136;48.502;9.194;2023-08-17T01:22:34;6.50;;;5.10;;
4244;SDS011;2136;48.502;9.194;2023-08-17T01:25:04;6.87;;;4.70;;
4244;SDS011;2136;48.502;9.194;2023-08-17T01:27:34;7.93;;;5.10;;
4244;SDS011;2136;48.502;9.194;2023-08-17T01:30:04;6.90;;;4.80;;
4244;SDS011;2136;48.502;9.194;2023-08-17T01:32:34;5.30;;;4.80;;
4244;SDS011;2136;48.502;9.194;2023-08-17T01:35:07;6.07;;;5.13;;
4244;SDS011;2136;48.502;9.194;2023-08-17T01:37:40;5.77;;;5.27;;
4244;SDS011;2136;48.502;9.194;2023-08-17T01:40:10;6.50;;;5.77;;
4244;SDS011;2136;48.502;9.194;2023-08-17T01:42:39;7.20;;;5.47;;
4244;SDS011;2136;48.502;9.194;2023-08-17T01:45:08;5.80;;;5.20;;
4244;SDS011;2136;48.502;9.194;2023-08-17T01:47:35;7.83;;;5.60;;
4244;SDS011;2136;48.502;9.194;2023-08-17T01:50:02;8.20;;;6.50;;
4244;SDS011;2136;48.502;9.194;2023-08-17T01:52:29;7.80;;;6.00;;
4244;SDS011;2136;48.502;9.194;2023-08-17T01:54:56;8.67;;;5.00;;
4244;SDS011;2136;48.502;9.194;2023-08-17T01:57:24;5.53;;;5.03;;
4244;SDS011;2136;48.502;9.194;2023-08-17T01:59:51;5.30;;;4.90;;
4244;SDS011;2136;48.502;9.194;2023-08-17T02:02:18;7.43;;;5.47;;
4244;SDS011;2136;48.502;9.194;2023-08-17T02:04:46;4.90;;;4.27;;
4244;SDS011;2136;48.502;9.194;2023-08-17T02:07:13;4.97;;;4.57;;
4244;SDS011;2136;48.502;9.194;2023-08-17T02:09:40;5.50;;;5.00;;
4244;SDS011;2136;48.502;9.194;2023-08-17T02:12:07;5.03;;;4.40;;
4244;SDS011;2136;48.502;9.194;2023-08-17T02:14:35;8.40;;;4.40;;
4244;SDS011;2136;48.502;9.194;2023-08-17T02:17:02;5.03;;;4.00;;
4244;SDS011;2136;48.502;9.194;2023-08-17T02:19:30;6.97;;;4.53;;
4244;SDS011;2136;48.502;9.194;2023-08-17T02:21:57;5.53;;;3.97;;
4244;SDS011;2136;48.502;9.194;2023-08-17T02:24:24;7.20;;;4.80;;
4244;SDS011;2136;48.502;9.194;2023-08-17T02:26:51;3.83;;;3.53;;
4244;SDS011;2136;48.502;9.194;2023-08-17T02:29:18;3.93;;;3.50;;
4244;SDS011;2136;48.502;9.194;2023-08-17T02:31:46;7.57;;;4.40;;
4244;SDS011;2136;48.502;9.194;2023-08-17T02:34:13;5.07;;;4.57;;
4244;SDS011;2136;48.502;9.194;2023-08-17T02:36:40;6.03;;;4.93;;
4244;SDS011;2136;48.502;9.194;2023-08-17T02:39:07;8.50;;;4.80;;
4244;SDS011;2136;48.502;9.194;2023-08-17T02:41:34;5.50;;;3.90;;
4244;SDS011;2136;48.502;9.194;2023-08-17T02:44:01;5.30;;;4.80;;
4244;SDS011;2136;48.502;9.194;2023-08-17T02:46:28;8.23;;;5.37;;
4244;SDS011;2136;48.502;9.194;2023-08-17T02:48:56;9.50;;;5.20;;
4244;SDS011;2136;48.502;9.194;2023-08-17T02:51:23;5.73;;;5.10;;
4244;SDS011;2136;48.502;9.194;2023-08-17T02:53:50;11.13;;;5.87;;
4244;SDS011;2136;48.502;9.194;2023-08-17T02:56:17;5.40;;;4.97;;
4244;SDS011;2136;48.502;9.194;2023-08-17T02:58:43;7.43;;;6.70;;
4244;SDS011;2136;48.502;9.194;2023-08-17T03:01:10;10.07;;;6.00;;
4244;SDS011;2136;48.502;9.194;2023-08-17T03:03:37;8.20;;;6.40;;
4244;SDS011;2136;48.502;9.194;2023-08-17T03:06:06;9.13;;;7.00;;
4244;SDS011;2136;48.502;9.194;2023-08-17T03:08:33;9.17;;;7.30;;
4244;SDS011;2136;48.502;9.194;2023-08-17T03:11:00;9.90;;;6.80;;
4244;SDS011;2136;48.502;9.194;2023-08-17T03:13:27;7.13;;;6.53;;
4244;SDS011;2136;48.502;9.194;2023-08-17T03:15:54;8.90;;;6.90;;
4244;SDS011;2136;48.502;9.194;2023-08-17T03:18:21;9.03;;;7.17;;
4244;SDS011;2136;48.502;9.194;2023-08-17T03:20:48;8.30;;;7.17;;
4244;SDS011;2136;48.502;9.194;2023-08-17T03:23:16;6.90;;;6.20;;
4244;SDS011;2136;48.502;9.194;2023-08-17T03:25:43;6.73;;;5.93;;
4244;SDS011;2136;48.502;9.194;2023-08-17T03:28:10;7.20;;;6.50;;
4244;SDS011;2136;48.502;9.194;2023-08-17T03:30:37;8.03;;;6.77;;
4244;SDS011;2136;48.502;9.194;2023-08-17T03:33:04;8.30;;;6.43;;
4244;SDS011;2136;48.502;9.194;2023-08-17T03:35:31;6.53;;;5.90;;
4244;SDS011;2136;48.502;9.194;2023-08-17T03:37:58;7.50;;;6.77;;
4244;SDS011;2136;48.502;9.194;2023-08-17T03:40:26;7.40;;;6.20;;
4244;SDS011;2136;48.502;9.194;2023-08-17T03:42:52;6.50;;;5.93;;
4244;SDS011;2136;48.502;9.194;2023-08-17T03:45:19;6.00;;;5.40;;
4244;SDS011;2136;48.502;9.194;2023-08-17T03:47:46;6.57;;;6.00;;
4244;SDS011;2136;48.502;9.194;2023-08-17T03:50:13;5.53;;;5.03;;
4244;SDS011;2136;48.502;9.194;2023-08-17T03:52:40;6.27;;;5.70;;
4244;SDS011;2136;48.502;9.194;2023-08-17T03:55:07;5.33;;;4.93;;
4244;SDS011;2136;48.502;9.194;2023-08-17T03:57:35;5.93;;;5.00;;
4244;SDS011;2136;48.502;9.194;2023-08-17T04:00:02;5.83;;;5.33;;
4244;SDS011;2136;48.502;9.194;2023-08-17T04:02:31;8.63;;;5.20;;
4244;SDS011;2136;48.502;9.194;2023-08-17T04:04:58;5.40;;;4.97;;
4244;SDS011;2136;48.502;9.194;2023-08-17T04:07:24;6.17;;;5.60;;
4244;SDS011;2136;48.502;9.194;2023-08-17T04:09:51;5.23;;;4.73;;
4244;SDS011;2136;48.502;9.194;2023-08-17T04:12:18;5.17;;;4.77;;
4244;SDS011;2136;48.502;9.194;2023-08-17T04:14:46;6.93;;;5.47;;
4244;SDS011;2136;48.502;9.194;2023-08-17T04:17:13;9.07;;;5.00;;
4244;SDS011;2136;48.502;9.194;2023-08-17T04:19:40;6.77;;;5.43;;
4244;SDS011;2136;48.502;9.194;2023-08-17T04:22:07;7.77;;;6.70;;
4244;SDS011;2136;48.502;9.194;2023-08-17T04:24:35;13.00;;;7.97;;
4244;SDS011;2136;48.502;9.194;2023-08-17T04:27:02;13.30;;;8.93;;
4244;SDS011;2136;48.502;9.194;2023-08-17T04:29:29;8.93;;;7.67;;
4244;SDS011;2136;48.502;9.194;2023-08-17T04:31:58;13.00;;;8.10;;
4244;SDS011;2136;48.502;9.194;2023-08-17T04:34:25;16.93;;;8.70;;
4244;SDS011;2136;48.502;9.194;2023-08-17T04:36:52;17.90;;;8.53;;
4244;SDS011;2136;48.502;9.194;2023-08-17T04:39:19;14.10;;;8.30;;
4244;SDS011;2136;48.502;9.194;2023-08-17T04:41:46;11.93;;;8.37;;
4244;SDS011;2136;48.502;9.194;2023-08-17T04:44:13;23.03;;;10.33;;
4244;SDS011;2136;48.502;9.194;2023-08-17T04:46:40;24.63;;;8.83;;
4244;SDS011;2136;48.502;9.194;2023-08-17T04:49:08;18.20;;;9.50;;
4244;SDS011;2136;48.502;9.194;2023-08-17T04:51:35;14.53;;;8.87;;
4244;SDS011;2136;48.502;9.194;2023-08-17T04:54:02;15.80;;;9.43;;
4244;SDS011;2136;48.502;9.194;2023-08-17T04:56:29;16.53;;;8.83;;
4244;SDS011;2136;48.502;9.194;2023-08-17T04:58:56;16.50;;;9.00;;
4244;SDS011;2136;48.502;9.194;2023-08-17T05:01:22;14.43;;;9.30;;
4244;SDS011;2136;48.502;9.194;2023-08-17T05:03:49;13.97;;;9.17;;
4244;SDS011;2136;48.502;9.194;2023-08-17T05:06:18;21.20;;;9.40;;
4244;SDS011;2136;48.502;9.194;2023-08-17T05:08:44;19.83;;;9.40;;
4244;SDS011;2136;48.502;9.194;2023-08-17T05:11:11;25.20;;;9.60;;
4244;SDS011;2136;48.502;9.194;2023-08-17T05:13:38;21.03;;;10.73;;
4244;SDS011;2136;48.502;9.194;2023-08-17T05:16:05;22.23;;;11.53;;
4244;SDS011;2136;48.502;9.194;2023-08-17T05:18:32;21.03;;;10.60;;
4244;SDS011;2136;48.502;9.194;2023-08-17T05:20:58;20.20;;;10.60;;
4244;SDS011;2136;48.502;9.194;2023-08-17T05:23:27;17.50;;;10.67;;
4244;SDS011;2136;48.502;9.194;2023-08-17T05:25:54;16.20;;;9.47;;
4244;SDS011;2136;48.502;9.194;2023-08-17T05:28:21;18.40;;;10.40;;
4244;SDS011;2136;48.502;9.194;2023-08-17T05:30:48;20.33;;;11.03;;
4244;SDS011;2136;48.502;9.194;2023-08-17T05:33:15;24.90;;;11.77;;
4244;SDS011;2136;48.502;9.194;2023-08-17T05:35:42;17.03;;;11.03;;
4244;SDS011;2136;48.502;9.194;2023-08-17T05:38:09;17.67;;;11.47;;
4244;SDS011;2136;48.502;9.194;2023-08-17T05:40:37;21.13;;;12.70;;
4244;SDS011;2136;48.502;9.194;2023-08-17T05:43:04;23.73;;;11.87;;
4244;SDS011;2136;48.502;9.194;2023-08-17T05:45:30;19.97;;;11.10;;
4244;SDS011;2136;48.502;9.194;2023-08-17T05:48:01;22.57;;;12.70;;
4244;SDS011;2136;48.502;9.194;2023-08-17T05:50:28;21.60;;;13.00;;
4244;SDS011;2136;48.502;9.194;2023-08-17T05:52:55;20.10;;;12.13;;
4244;SDS011;2136;48.502;9.194;2023-08-17T05:55:22;16.67;;;11.90;;
4244;SDS011;2136;48.502;9.194;2023-08-17T05:57:50;17.60;;;11.47;;
4244;SDS011;2136;48.502;9.194;2023-08-17T06:00:17;17.07;;;10.70;;
4244;SDS011;2136;48.502;9.194;2023-08-17T06:02:44;14.80;;;9.70;;
4244;SDS011;2136;48.502;9.194;2023-08-17T06:05:14;14.47;;;9.90;;
4244;SDS011;2136;48.502;9.194;2023-08-17T06:07:41;10.57;;;7.57;;
4244;SDS011;2136;48.502;9.194;2023-08-17T06:10:09;14.60;;;9.00;;
4244;SDS011;2136;48.502;9.194;2023-08-17T06:12:36;12.33;;;8.53;;
4244;SDS011;2136;48.502;9.194;2023-08-17T06:15:05;10.87;;;8.00;;
4244;SDS011;2136;48.502;9.194;2023-08-17T06:17:33;10.40;;;7.63;;
4244;SDS011;2136;48.502;9.194;2023-08-17T06:19:59;10.00;;;8.07;;
4244;SDS011;2136;48.502;9.194;2023-08-17T06:22:28;9.27;;;7.07;;
4244;SDS011;2136;48.502;9.194;2023-08-17T06:24:55;8.50;;;6.93;;
4244;SDS011;2136;48.502;9.194;2023-08-17T06:27:21;6.53;;;5.87;;
4244;SDS011;2136;48.502;9.194;2023-08-17T06:29:48;7.67;;;6.40;;
4244;SDS011;2136;48.502;9.194;2023-08-17T06:32:16;8.87;;;6.97;;
4244;SDS011;2136;48.502;9.194;2023-08-17T06:34:43;13.20;;;7.90;;
4244;SDS011;2136;48.502;9.194;2023-08-17T06:37:10;9.48;;;7.80;;
4244;SDS011;2136;48.502;9.194;2023-08-17T06:39:37;9.47;;;6.93;;
4244;SDS011;2136;48.502;9.194;2023-08-17T06:42:04;11.03;;;8.63;;
4244;SDS011;2136;48.502;9.194;2023-08-17T06:44:31;10.83;;;8.47;;
4244;SDS011;2136;48.502;9.194;2023-08-17T06:46:58;12.40;;;9.30;;
4244;SDS011;2136;48.502;9.194;2023-08-17T06:49:26;11.27;;;8.43;;
4244;SDS011;2136;48.502;9.194;2023-08-17T06:51:53;10.07;;;8.10;;
4244;SDS011;2136;48.502;9.194;2023-08-17T06:54:20;13.23;;;9.50;;
4244;SDS011;2136;48.502;9.194;2023-08-17T06:56:47;17.13;;;9.53;;
4244;SDS011;2136;48.502;9.194;2023-08-17T06:59:14;12.50;;;9.30;;
4244;SDS011;2136;48.502;9.194;2023-08-17T07:01:40;11.97;;;9.73;;
4244;SDS011;2136;48.502;9.194;2023-08-17T07:04:07;10.97;;;8.60;;
4244;SDS011;2136;48.502;9.194;2023-08-17T07:06:35;11.30;;;9.07;;
4244;SDS011;2136;48.502;9.194;2023-08-17T07:09:02;13.10;;;9.10;;
4244;SDS011;2136;48.502;9.194;2023-08-17T07:11:30;13.10;;;9.87;;
4244;SDS011;2136;48.502;9.194;2023-08-17T07:13:57;11.33;;;8.53;;
4244;SDS011;2136;48.502;9.194;2023-08-17T07:16:24;12.27;;;8.87;;
4244;SDS011;2136;48.502;9.194;2023-08-17T07:18:51;10.53;;;8.37;;
4244;SDS011;2136;48.502;9.194;2023-08-17T07:21:17;10.90;;;8.13;;
4244;SDS011;2136;48.502;9.194;2023-08-17T07:23:46;10.77;;;8.47;;
4244;SDS011;2136;48.502;9.194;2023-08-17T07:26:13;11.23;;;8.17;;
4244;SDS011;2136;48.502;9.194;2023-08-17T07:28:40;11.93;;;8.47;;
4244;SDS011;2136;48.502;9.194;2023-08-17T07:31:06;10.87;;;8.40;;
4244;SDS011;2136;48.502;9.194;2023-08-17T07:33:33;9.57;;;8.00;;
4244;SDS011;2136;48.502;9.194;2023-08-17T07:36:00;9.00;;;8.10;;
4244;SDS011;2136;48.502;9.194;2023-08-17T07:38:27;15.13;;;8.70;;
4244;SDS011;2136;48.502;9.194;2023-08-17T07:40:55;11.43;;;7.63;;
4244;SDS011;2136;48.502;9.194;2023-08-17T07:43:22;11.15;;;8.90;;
4244;SDS011;2136;48.502;9.194;2023-08-17T07:45:52;11.57;;;8.60;;
4244;SDS011;2136;48.502;9.194;2023-08-17T07:48:19;11.83;;;9.00;;
4244;SDS011;2136;48.502;9.194;2023-08-17T07:50:47;13.20;;;8.63;;
4244;SDS011;2136;48.502;9.194;2023-08-17T07:53:15;11.23;;;8.70;;
4244;SDS011;2136;48.502;9.194;2023-08-17T07:55:42;10.30;;;8.60;;
4244;SDS011;2136;48.502;9.194;2023-08-17T07:58:10;14.13;;;8.43;;
4244;SDS011;2136;48.502;9.194;2023-08-17T08:00:37;11.67;;;8.63;;
4244;SDS011;2136;48.502;9.194;2023-08-17T08:03:04;10.47;;;9.30;;
4244;SDS011;2136;48.502;9.194;2023-08-17T08:05:31;10.83;;;9.07;;
4244;SDS011;2136;48.502;9.194;2023-08-17T08:07:58;11.97;;;8.57;;
4244;SDS011;2136;48.502;9.194;2023-08-17T08:10:25;8.37;;;7.50;;
4244;SDS011;2136;48.502;9.194;2023-08-17T08:12:52;17.00;;;9.40;;
4244;SDS011;2136;48.502;9.194;2023-08-17T08:15:21;11.43;;;7.83;;
4244;SDS011;2136;48.502;9.194;2023-08-17T08:17:48;8.77;;;7.83;;
4244;SDS011;2136;48.502;9.194;2023-08-17T08:20:15;10.17;;;8.40;;
4244;SDS011;2136;48.502;9.194;2023-08-17T08:22:42;9.50;;;8.30;;
4244;SDS011;2136;48.502;9.194;2023-08-17T08:25:09;9.90;;;8.50;;
4244;SDS011;2136;48.502;9.194;2023-08-17T08:27:36;10.00;;;8.20;;
4244;SDS011;2136;48.502;9.194;2023-08-17T08:30:04;9.40;;;8.47;;
4244;SDS011;2136;48.502;9.194;2023-08-17T08:32:33;12.30;;;8.30;;
4244;SDS011;2136;48.502;9.194;2023-08-17T08:35:00;10.50;;;8.40;;
4244;SDS011;2136;48.502;9.194;2023-08-17T08:37:28;9.43;;;7.70;;
4244;SDS011;2136;48.502;9.194;2023-08-17T08:39:55;10.77;;;8.90;;
4244;SDS011;2136;48.502;9.194;2023-08-17T08:42:22;8.23;;;7.17;;
4244;SDS011;2136;48.502;9.194;2023-08-17T08:44:50;7.70;;;6.90;;
4244;SDS011;2136;48.502;9.194;2023-08-17T08:47:17;11.30;;;8.23;;
4244;SDS011;2136;48.502;9.194;2023-08-17T08:49:49;10.70;;;7.43;;
4244;SDS011;2136;48.502;9.194;2023-08-17T08:52:20;10.93;;;8.30;;
4244;SDS011;2136;48.502;9.194;2023-08-17T08:54:50;9.77;;;7.70;;
4244;SDS011;2136;48.502;9.194;2023-08-17T08:57:19;10.07;;;8.40;;
4244;SDS011;2136;48.502;9.194;2023-08-17T08:59:47;8.87;;;7.50;;
4244;SDS011;2136;48.502;9.194;2023-08-17T09:02:14;10.23;;;8.00;;
4244;SDS011;2136;48.502;9.194;2023-08-17T09:04:42;12.00;;;7.90;;
4244;SDS011;2136;48.502;9.194;2023-08-17T09:07:11;9.00;;;7.37;;
4244;SDS011;2136;48.502;9.194;2023-08-17T09:09:39;13.90;;;8.47;;
4244;SDS011;2136;48.502;9.194;2023-08-17T09:12:06;11.30;;;8.53;;
4244;SDS011;2136;48.502;9.194;2023-08-17T09:14:35;10.10;;;8.70;;
4244;SDS011;2136;48.502;9.194;2023-08-17T09:17:02;12.40;;;8.40;;
4244;SDS011;2136;48.502;9.194;2023-08-17T09:19:31;11.27;;;8.93;;
4244;SDS011;2136;48.502;9.194;2023-08-17T09:21:58;10.90;;;7.60;;
4244;SDS011;2136;48.502;9.194;2023-08-17T09:24:29;11.47;;;7.63;;
4244;SDS011;2136;48.502;9.194;2023-08-17T09:27:00;14.40;;;8.23;;
4244;SDS011;2136;48.502;9.194;2023-08-17T09:29:27;8.47;;;7.33;;
4244;SDS011;2136;48.502;9.194;2023-08-17T09:31:56;8.27;;;7.13;;
4244;SDS011;2136;48.502;9.194;2023-08-17T09:34:23;11.50;;;6.87;;
4244;SDS011;2136;48.502;9.194;2023-08-17T09:36:50;10.40;;;7.40;;
4244;SDS011;2136;48.502;9.194;2023-08-17T09:39:17;8.73;;;7.50;;
4244;SDS011;2136;48.502;9.194;2023-08-17T09:41:45;9.67;;;7.10;;
4244;SDS011;2136;48.502;9.194;2023-08-17T09:44:12;9.40;;;7.30;;
4244;SDS011;2136;48.502;9.194;2023-08-17T09:46:41;7.67;;;6.90;;
4244;SDS011;2136;48.502;9.194;2023-08-17T09:49:09;9.50;;;6.70;;
4244;SDS011;2136;48.502;9.194;2023-08-17T09:51:36;9.33;;;6.37;;
4244;SDS011;2136;48.502;9.194;2023-08-17T09:54:03;6.60;;;6.00;;
4244;SDS011;2136;48.502;9.194;2023-08-17T09:56:30;8.50;;;6.00;;
4244;SDS011;2136;48.502;9.194;2023-08-17T09:58:59;8.37;;;6.30;;
4244;SDS011;2136;48.502;9.194;2023-08-17T10:01:27;8.70;;;6.80;;
4244;SDS011;2136;48.502;9.194;2023-08-17T10:03:55;7.27;;;6.50;;
4244;SDS011;2136;48.502;9.194;2023-08-17T10:06:24;8.10;;;5.60;;
4244;SDS011;2136;48.502;9.194;2023-08-17T10:08:55;8.60;;;6.10;;
4244;SDS011;2136;48.502;9.194;2023-08-17T10:11:24;8.50;;;6.60;;
4244;SDS011;2136;48.502;9.194;2023-08-17T10:13:56;5.80;;;5.20;;
4244;SDS011;2136;48.502;9.194;2023-08-17T10:16:33;5.33;;;4.90;;
4244;SDS011;2136;48.502;9.194;2023-08-17T10:19:05;5.93;;;5.40;;
4244;SDS011;2136;48.502;9.194;2023-08-17T10:21:39;5.80;;;5.33;;
4244;SDS011;2136;48.502;9.194;2023-08-17T10:24:14;6.83;;;4.93;;
4244;SDS011;2136;48.502;9.194;2023-08-17T10:26:41;5.90;;;5.40;;
4244;SDS011;2136;48.502;9.194;2023-08-17T10:29:10;5.40;;;4.87;;
4244;SDS011;2136;48.502;9.194;2023-08-17T10:31:37;7.70;;;5.60;;
4244;SDS011;2136;48.502;9.194;2023-08-17T10:34:04;5.57;;;5.13;;
4244;SDS011;2136;48.502;9.194;2023-08-17T10:36:32;4.83;;;4.33;;
4244;SDS011;2136;48.502;9.194;2023-08-17T10:39:18;4.77;;;4.40;;
4244;SDS011;2136;48.502;9.194;2023-08-17T10:41:47;6.97;;;5.07;;
4244;SDS011;2136;48.502;9.194;2023-08-17T10:44:18;8.33;;;4.50;;
4244;SDS011;2136;48.502;9.194;2023-08-17T10:47:17;4.53;;;4.13;;
4244;SDS011;2136;48.502;9.194;2023-08-17T10:49:45;6.90;;;4.57;;
4244;SDS011;2136;48.502;9.194;2023-08-17T10:52:14;10.53;;;4.97;;
4244;SDS011;2136;48.502;9.194;2023-08-17T10:54:50;7.00;;;5.03;;
4244;SDS011;2136;48.502;9.194;2023-08-17T10:57:33;6.83;;;6.23;;
4244;SDS011;2136;48.502;9.194;2023-08-17T11:00:06;5.43;;;4.93;;
4244;SDS011;2136;48.502;9.194;2023-08-17T11:02:33;5.20;;;4.80;;
4244;SDS011;2136;48.502;9.194;2023-08-17T11:05:00;6.00;;;4.73;;
4244;SDS011;2136;48.502;9.194;2023-08-17T11:07:29;5.10;;;4.60;;
4244;SDS011;2136;48.502;9.194;2023-08-17T11:10:10;5.30;;;4.70;;
4244;SDS011;2136;48.502;9.194;2023-08-17T11:12:40;4.90;;;4.50;;
4244;SDS011;2136;48.502;9.194;2023-08-17T11:15:09;5.50;;;4.80;;
4244;SDS011;2136;48.502;9.194;2023-08-17T11:17:37;6.67;;;5.43;;
4244;SDS011;2136;48.502;9.194;2023-08-17T11:20:04;5.40;;;5.00;;
4244;SDS011;2136;48.502;9.194;2023-08-17T11:22:33;4.77;;;4.43;;
4244;SDS011;2136;48.502;9.194;2023-08-17T11:25:00;7.50;;;4.67;;
4244;SDS011;2136;48.502;9.194;2023-08-17T11:27:29;4.30;;;4.00;;
4244;SDS011;2136;48.502;9.194;2023-08-17T11:29:56;5.27;;;4.60;;
4244;SDS011;2136;48.502;9.194;2023-08-17T11:32:25;4.67;;;4.27;;
4244;SDS011;2136;48.502;9.194;2023-08-17T11:34:52;4.83;;;4.53;;
4244;SDS011;2136;48.502;9.194;2023-08-17T11:37:18;5.27;;;4.80;;
4244;SDS011;2136;48.502;9.194;2023-08-17T11:39:47;5.70;;;5.07;;
4244;SDS011;2136;48.502;9.194;2023-08-17T11:42:13;5.30;;;4.90;;
4244;SDS011;2136;48.502;9.194;2023-08-17T11:44:40;5.60;;;5.20;;
4244;SDS011;2136;48.502;9.194;2023-08-17T11:47:07;6.60;;;5.00;;
4244;SDS011;2136;48.502;9.194;2023-08-17T11:49:35;6.20;;;5.07;;
4244;SDS011;2136;48.502;9.194;2023-08-17T11:52:02;5.87;;;5.30;;
4244;SDS011;2136;48.502;9.194;2023-08-17T11:54:32;5.00;;;4.50;;
4244;SDS011;2136;48.502;9.194;2023-08-17T11:56:59;5.67;;;5.20;;
4244;SDS011;2136;48.502;9.194;2023-08-17T11:59:25;5.50;;;5.00;;
4244;SDS011;2136;48.502;9.194;2023-08-17T12:01:53;6.47;;;5.87;;
4244;SDS011;2136;48.502;9.194;2023-08-17T12:04:20;8.43;;;5.50;;
4244;SDS011;2136;48.502;9.194;2023-08-17T12:06:49;5.60;;;5.10;;
4244;SDS011;2136;48.502;9.194;2023-08-17T12:09:17;7.80;;;5.80;;
4244;SDS011;2136;48.502;9.194;2023-08-17T12:11:44;6.43;;;5.70;;
4244;SDS011;2136;48.502;9.194;2023-08-17T12:14:12;9.57;;;5.57;;
4244;SDS011;2136;48.502;9.194;2023-08-17T12:16:45;8.83;;;6.43;;
4244;SDS011;2136;48.502;9.194;2023-08-17T12:19:13;12.67;;;6.30;;
4244;SDS011;2136;48.502;9.194;2023-08-17T12:21:40;9.30;;;6.23;;
4244;SDS011;2136;48.502;9.194;2023-08-17T12:24:09;6.60;;;5.90;;
4244;SDS011;2136;48.502;9.194;2023-08-17T12:26:40;5.87;;;5.47;;
4244;SDS011;2136;48.502;9.194;2023-08-17T12:29:07;9.03;;;6.13;;
4244;SDS011;2136;48.502;9.194;2023-08-17T12:31:35;7.53;;;5.53;;
4244;SDS011;2136;48.502;9.194;2023-08-17T12:34:02;8.43;;;5.60;;
4244;SDS011;2136;48.502;9.194;2023-08-17T12:36:29;5.70;;;5.20;;
4244;SDS011;2136;48.502;9.194;2023-08-17T12:38:56;6.47;;;5.97;;
4244;SDS011;2136;48.502;9.194;2023-08-17T12:41:24;7.40;;;5.50;;
4244;SDS011;2136;48.502;9.194;2023-08-17T12:43:51;8.23;;;6.03;;
4244;SDS011;2136;48.502;9.194;2023-08-17T12:46:19;5.77;;;5.30;;
4244;SDS011;2136;48.502;9.194;2023-08-17T12:48:45;7.53;;;5.63;;
4244;SDS011;2136;48.502;9.194;2023-08-17T12:51:12;5.60;;;5.20;;
4244;SDS011;2136;48.502;9.194;2023-08-17T12:53:39;10.90;;;6.10;;
4244;SDS011;2136;48.502;9.194;2023-08-17T12:56:07;7.00;;;6.40;;
4244;SDS011;2136;48.502;9.194;2023-08-17T12:58:35;9.60;;;6.53;;
4244;SDS011;2136;48.502;9.194;2023-08-17T13:01:02;7.93;;;6.70;;
4244;SDS011;2136;48.502;9.194;2023-08-17T13:03:29;7.37;;;6.60;;
4244;SDS011;2136;48.502;9.194;2023-08-17T13:05:58;8.33;;;5.33;;
4244;SDS011;2136;48.502;9.194;2023-08-17T13:08:25;5.90;;;5.40;;
4244;SDS011;2136;48.502;9.194;2023-08-17T13:10:52;8.20;;;6.70;;
4244;SDS011;2136;48.502;9.194;2023-08-17T13:13:19;6.00;;;5.50;;
4244;SDS011;2136;48.502;9.194;2023-08-17T13:15:48;6.60;;;5.93;;
4244;SDS011;2136;48.502;9.194;2023-08-17T13:18:15;8.63;;;5.83;;
4244;SDS011;2136;48.502;9.194;2023-08-17T13:20:41;7.40;;;6.80;;
4244;SDS011;2136;48.502;9.194;2023-08-17T13:23:09;6.13;;;5.63;;
4244;SDS011;2136;48.502;9.194;2023-08-17T13:25:39;6.73;;;6.13;;
4244;SDS011;2136;48.502;9.194;2023-08-17T13:28:06;6.33;;;5.73;;
4244;SDS011;2136;48.502;9.194;2023-08-17T13:30:33;7.30;;;5.43;;
4244;SDS011;2136;48.502;9.194;2023-08-17T13:33:01;6.97;;;5.97;;
4244;SDS011;2136;48.502;9.194;2023-08-17T13:35:28;5.90;;;5.30;;
4244;SDS011;2136;48.502;9.194;2023-08-17T13:37:54;10.13;;;6.40;;
4244;SDS011;2136;48.502;9.194;2023-08-17T13:40:22;6.33;;;5.80;;
4244;SDS011;2136;48.502;9.194;2023-08-17T13:42:49;5.97;;;5.40;;
4244;SDS011;2136;48.502;9.194;2023-08-17T13:45:16;8.20;;;6.23;;
4244;SDS011;2136;48.502;9.194;2023-08-17T13:47:43;12.30;;;7.10;;
4244;SDS011;2136;48.502;9.194;2023-08-17T13:50:11;7.37;;;6.63;;
4244;SDS011;2136;48.502;9.194;2023-08-17T13:52:38;7.50;;;6.80;;
4244;SDS011;2136;48.502;9.194;2023-08-17T13:55:05;7.17;;;6.57;;
4244;SDS011;2136;48.502;9.194;2023-08-17T13:57:33;8.00;;;7.30;;
4244;SDS011;2136;48.502;9.194;2023-08-17T13:59:59;8.70;;;7.80;;
4244;SDS011;2136;48.502;9.194;2023-08-17T14:02:26;13.37;;;7.10;;
4244;SDS011;2136;48.502;9.194;2023-08-17T14:04:53;7.77;;;7.07;;
4244;SDS011;2136;48.502;9.194;2023-08-17T14:07:21;11.93;;;7.10;;
4244;SDS011;2136;48.502;9.194;2023-08-17T14:09:48;7.73;;;6.97;;
4244;SDS011;2136;48.502;9.194;2023-08-17T14:12:15;7.90;;;7.07;;
4244;SDS011;2136;48.502;9.194;2023-08-17T14:14:42;7.80;;;7.00;;
4244;SDS011;2136;48.502;9.194;2023-08-17T14:17:08;8.53;;;7.43;;
4244;SDS011;2136;48.502;9.194;2023-08-17T14:19:35;8.10;;;7.37;;
4244;SDS011;2136;48.502;9.194;2023-08-17T14:22:02;8.63;;;6.53;;
4244;SDS011;2136;48.502;9.194;2023-08-17T14:24:30;8.13;;;6.70;;
4244;SDS011;2136;48.502;9.194;2023-08-17T14:26:57;7.60;;;6.80;;
4244;SDS011;2136;48.502;9.194;2023-08-17T14:29:24;9.60;;;7.60;;
4244;SDS011;2136;48.502;9.194;2023-08-17T14:31:51;7.63;;;6.90;;
4244;SDS011;2136;48.502;9.194;2023-08-17T14:34:18;8.60;;;7.30;;
4244;SDS011;2136;48.502;9.194;2023-08-17T14:36:46;8.30;;;7.40;;
4244;SDS011;2136;48.502;9.194;2023-08-17T14:39:13;7.83;;;6.90;;
4244;SDS011;2136;48.502;9.194;2023-08-17T14:41:42;9.10;;;7.43;;
4244;SDS011;2136;48.502;9.194;2023-08-17T14:44:08;7.23;;;6.53;;
4244;SDS011;2136;48.502;9.194;2023-08-17T14:46:35;8.87;;;6.53;;
4244;SDS011;2136;48.502;9.194;2023-08-17T14:49:04;10.13;;;7.43;;
4244;SDS011;2136;48.502;9.194;2023-08-17T14:51:33;9.13;;;7.30;;
4244;SDS011;2136;48.502;9.194;2023-08-17T14:54:03;7.73;;;6.90;;
4244;SDS011;2136;48.502;9.194;2023-08-17T14:56:31;8.07;;;7.13;;
4244;SDS011;2136;48.502;9.194;2023-08-17T14:58:59;9.50;;;7.30;;
4244;SDS011;2136;48.502;9.194;2023-08-17T15:01:27;9.83;;;8.13;;
4244;SDS011;2136;48.502;9.194;2023-08-17T15:03:54;8.70;;;5.70;;
4244;SDS011;2136;48.502;9.194;2023-08-17T15:06:21;10.13;;;6.30;;
4244;SDS011;2136;48.502;9.194;2023-08-17T15:08:49;11.80;;;6.40;;
4244;SDS011;2136;48.502;9.194;2023-08-17T15:11:16;7.30;;;5.90;;
4244;SDS011;2136;48.502;9.194;2023-08-17T15:13:43;6.80;;;6.10;;